Time;durP1;ratioP1;P1;durP2;ratioP2;P2;SDS_P1;SDS_P2;PMS_P1;PMS_P2;Temp;Humidity;BMP_temperature;BMP_pressure;BME280_temperature;BME280_humidity;BME280_pressure;Samples;Min_cycle;Max_cycle;Signal;HPM_P1;HPM_P2
2023/03/02 00:01:56;;;;;;;42.70;25.02;;;;;;;;;;5101028;28;20035;-44
2023/03/02 00:04:36;;;;;;;41.33;25.33;;;;;;;;;;5096738;28;20039;-43
2023/03/02 00:07:06;;;;;;;50.28;25.98;;;;;;;;;;5100515;28;20093;-47
2023/03/02 00:09:32;;;;;;;40.78;25.40;;;;;;;;;;5097594;28;20050;-43
2023/03/02 00:12:01;;;;;;;35.38;25.98;;;;;;;;;;5096777;28;20024;-45
2023/03/02 00:14:26;;;;;;;38.30;23.95;;;;;;;;;;5099566;28;20399;-43
2023/03/02 00:16:51;;;;;;;33.03;23.63;;;;;;;;;;5097715;28;20036;-43
2023/03/02 00:19:17;;;;;;;37.13;25.35;;;;;;;;;;5100377;27;20040;-43
2023/03/02 00:21:42;;;;;;;39.40;25.55;;;;;;;;;;5100280;28;20039;-43
2023/03/02 00:24:08;;;;;;;37.97;25.13;;;;;;;;;;5100489;28;20087;-46
2023/03/02 00:26:35;;;;;;;36.30;25.30;;;;;;;;;;5100984;28;20031;-44
2023/03/02 00:29:00;;;;;;;42.60;25.25;;;;;;;;;;5099121;28;20130;-45
2023/03/02 00:31:25;;;;;;;44.08;26.20;;;;;;;;;;5100167;28;20107;-44
2023/03/02 00:34:00;;;;;;;38.10;25.00;;;;;;;;;;5099608;28;20041;-51
2023/03/02 00:36:25;;;;;;;38.95;24.02;;;;;;;;;;5099379;28;20050;-45
2023/03/02 00:38:51;;;;;;;39.63;25.17;;;;;;;;;;5098952;28;20052;-45
2023/03/02 00:41:20;;;;;;;33.20;22.92;;;;;;;;;;5096805;28;20032;-44
2023/03/02 00:43:46;;;;;;;35.75;23.35;;;;;;;;;;5093935;28;20032;-47
2023/03/02 00:46:15;;;;;;;34.20;24.08;;;;;;;;;;5099099;28;20085;-45
2023/03/02 00:48:51;;;;;;;33.67;23.27;;;;;;;;;;5100144;28;20502;-47
2023/03/02 00:51:17;;;;;;;38.78;24.40;;;;;;;;;;5100364;28;20430;-44
2023/03/02 00:53:42;;;;;;;35.15;23.23;;;;;;;;;;5098152;28;20039;-44
2023/03/02 00:56:08;;;;;;;32.90;22.90;;;;;;;;;;5101526;28;20376;-44
2023/03/02 00:58:34;;;;;;;31.23;23.80;;;;;;;;;;5102218;28;20048;-45
2023/03/02 01:01:08;;;;;;;36.97;24.50;;;;;;;;;;5102340;28;20024;-44
2023/03/02 01:03:34;;;;;;;42.13;24.27;;;;;;;;;;5097710;28;20092;-43
2023/03/02 01:05:59;;;;;;;36.70;25.10;;;;;;;;;;5100913;28;20027;-44
2023/03/02 01:08:28;;;;;;;42.95;25.40;;;;;;;;;;5099789;28;20127;-44
2023/03/02 01:10:53;;;;;;;32.22;23.27;;;;;;;;;;5104793;28;20020;-44
2023/03/02 01:13:24;;;;;;;32.00;22.65;;;;;;;;;;5102727;28;20052;-44
2023/03/02 01:15:59;;;;;;;32.67;23.58;;;;;;;;;;5104923;28;20020;-44
2023/03/02 01:18:31;;;;;;;32.88;22.77;;;;;;;;;;5097940;28;20402;-49
2023/03/02 01:21:15;;;;;;;36.08;24.23;;;;;;;;;;5100551;28;20032;-48
2023/03/02 01:23:41;;;;;;;35.60;22.58;;;;;;;;;;5103139;27;20111;-44
2023/03/02 01:26:06;;;;;;;34.38;24.67;;;;;;;;;;5102943;28;20475;-44
2023/03/02 01:28:32;;;;;;;32.67;22.20;;;;;;;;;;5104145;28;20077;-45
2023/03/02 01:31:00;;;;;;;36.17;24.80;;;;;;;;;;5102865;28;20122;-44
2023/03/02 01:33:25;;;;;;;37.20;24.35;;;;;;;;;;5104563;27;20066;-47
2023/03/02 01:35:57;;;;;;;34.00;23.27;;;;;;;;;;5102995;28;20059;-46
2023/03/02 01:38:22;;;;;;;37.40;23.85;;;;;;;;;;5098082;28;20408;-44
2023/03/02 01:40:47;;;;;;;36.20;23.00;;;;;;;;;;5103051;28;20031;-46
2023/03/02 01:43:15;;;;;;;32.90;22.77;;;;;;;;;;5100056;28;20020;-45
2023/03/02 01:46:08;;;;;;;34.50;22.35;;;;;;;;;;5103391;28;20447;-44
2023/03/02 01:48:41;;;;;;;30.63;23.15;;;;;;;;;;5088609;28;20051;-47
2023/03/02 01:51:07;;;;;;;34.53;21.98;;;;;;;;;;5101817;28;20027;-45
2023/03/02 01:53:35;;;;;;;31.63;22.42;;;;;;;;;;5104058;27;20396;-46
2023/03/02 01:56:02;;;;;;;34.67;22.52;;;;;;;;;;5099118;28;20024;-44
2023/03/02 01:58:35;;;;;;;32.70;23.23;;;;;;;;;;5102531;28;20419;-46
2023/03/02 02:01:01;;;;;;;37.00;23.65;;;;;;;;;;5101643;28;20023;-45
2023/03/02 02:03:33;;;;;;;34.33;23.17;;;;;;;;;;5099827;27;20058;-44
2023/03/02 02:06:10;;;;;;;33.55;23.10;;;;;;;;;;5101508;28;20036;-46
2023/03/02 02:08:38;;;;;;;33.47;22.65;;;;;;;;;;5100948;28;20077;-44
2023/03/02 02:11:05;;;;;;;33.38;23.13;;;;;;;;;;5103022;28;20094;-45
2023/03/02 02:13:31;;;;;;;32.03;22.55;;;;;;;;;;5095999;28;20040;-49
2023/03/02 02:15:56;;;;;;;38.40;23.23;;;;;;;;;;5102221;28;20020;-47
2023/03/02 02:18:22;;;;;;;39.33;22.98;;;;;;;;;;5102524;28;20046;-46
2023/03/02 02:20:57;;;;;;;35.95;23.40;;;;;;;;;;5096539;28;20048;-46
2023/03/02 02:23:50;;;;;;;36.42;23.70;;;;;;;;;;5099088;28;20039;-45
2023/03/02 02:26:33;;;;;;;38.53;23.20;;;;;;;;;;5099985;28;20020;-44
2023/03/02 02:29:21;;;;;;;39.20;22.90;;;;;;;;;;5101844;28;20043;-44
2023/03/02 02:31:59;;;;;;;38.03;22.60;;;;;;;;;;5097180;28;20028;-45
2023/03/02 02:34:24;;;;;;;30.73;22.27;;;;;;;;;;5103120;27;20495;-45
2023/03/02 02:36:54;;;;;;;37.75;23.83;;;;;;;;;;5102892;28;20028;-44
2023/03/02 02:39:32;;;;;;;36.22;23.15;;;;;;;;;;5102320;28;20121;-46
2023/03/02 02:42:01;;;;;;;33.92;24.13;;;;;;;;;;5101021;28;20379;-46
2023/03/02 02:44:26;;;;;;;33.13;22.92;;;;;;;;;;5103067;28;20032;-44
2023/03/02 02:46:52;;;;;;;37.65;24.35;;;;;;;;;;5099891;28;20027;-45
2023/03/02 02:49:44;;;;;;;37.17;23.23;;;;;;;;;;5101822;28;20036;-47
2023/03/02 02:52:12;;;;;;;34.97;23.63;;;;;;;;;;5098960;28;20032;-44
2023/03/02 02:54:38;;;;;;;35.22;23.95;;;;;;;;;;5097256;28;20040;-47
2023/03/02 02:57:04;;;;;;;34.00;23.80;;;;;;;;;;5101597;28;20511;-45
2023/03/02 02:59:41;;;;;;;33.65;23.38;;;;;;;;;;5100017;27;20492;-45
2023/03/02 03:02:18;;;;;;;34.33;22.77;;;;;;;;;;5097052;28;20020;-45
2023/03/02 03:04:44;;;;;;;34.13;23.25;;;;;;;;;;5101367;27;20038;-45
2023/03/02 03:07:14;;;;;;;34.90;23.35;;;;;;;;;;5099621;28;20098;-47
2023/03/02 03:09:43;;;;;;;35.10;22.52;;;;;;;;;;5102340;27;20035;-46
2023/03/02 03:12:16;;;;;;;32.65;23.20;;;;;;;;;;5102230;28;20042;-44
2023/03/02 03:14:42;;;;;;;38.50;24.60;;;;;;;;;;5104249;28;20059;-45
2023/03/02 03:17:14;;;;;;;34.50;23.80;;;;;;;;;;5103008;28;20026;-44
2023/03/02 03:19:44;;;;;;;35.25;23.25;;;;;;;;;;5099876;27;20032;-47
2023/03/02 03:22:19;;;;;;;30.40;22.67;;;;;;;;;;5103503;28;20110;-45
2023/03/02 03:24:45;;;;;;;32.33;22.05;;;;;;;;;;5094336;28;20114;-48
2023/03/02 03:27:13;;;;;;;31.17;22.60;;;;;;;;;;5100018;28;20118;-44
2023/03/02 03:29:43;;;;;;;32.80;22.88;;;;;;;;;;5097729;28;20043;-46
2023/03/02 03:32:08;;;;;;;32.45;22.75;;;;;;;;;;5096800;28;20023;-45
2023/03/02 03:34:39;;;;;;;32.20;22.15;;;;;;;;;;5099786;27;20492;-45
2023/03/02 03:37:06;;;;;;;32.20;22.95;;;;;;;;;;5099045;28;20083;-44
2023/03/02 03:39:42;;;;;;;34.40;23.05;;;;;;;;;;5100237;28;20059;-47
2023/03/02 03:42:08;;;;;;;35.15;22.77;;;;;;;;;;5103011;28;20540;-45
2023/03/02 03:44:42;;;;;;;32.30;22.67;;;;;;;;;;5098407;28;20127;-49
2023/03/02 03:47:08;;;;;;;30.73;23.20;;;;;;;;;;5101376;28;20028;-53
2023/03/02 03:49:42;;;;;;;36.55;23.67;;;;;;;;;;5099614;28;20093;-46
2023/03/02 03:52:08;;;;;;;32.55;22.98;;;;;;;;;;5097631;28;20153;-47
2023/03/02 03:54:45;;;;;;;35.95;23.38;;;;;;;;;;5099798;28;20127;-50
2023/03/02 03:57:11;;;;;;;36.17;22.70;;;;;;;;;;5098370;28;20533;-46
2023/03/02 03:59:46;;;;;;;36.53;23.67;;;;;;;;;;5101749;28;20048;-52
2023/03/02 04:02:14;;;;;;;31.92;22.52;;;;;;;;;;5095674;28;20418;-45
2023/03/02 04:04:40;;;;;;;36.33;23.20;;;;;;;;;;5100562;27;20497;-44
2023/03/02 04:07:05;;;;;;;32.20;21.85;;;;;;;;;;5102685;28;20024;-47
2023/03/02 04:09:32;;;;;;;35.22;23.45;;;;;;;;;;5101492;28;20044;-47
2023/03/02 04:11:58;;;;;;;40.15;23.42;;;;;;;;;;5094330;28;20102;-52
2023/03/02 04:14:30;;;;;;;34.55;22.80;;;;;;;;;;5095767;28;20241;-46
2023/03/02 04:16:55;;;;;;;35.65;24.17;;;;;;;;;;5101230;28;20062;-44
2023/03/02 04:19:22;;;;;;;35.45;23.33;;;;;;;;;;5102455;27;20073;-46
2023/03/02 04:21:51;;;;;;;33.53;24.52;;;;;;;;;;5099500;28;20051;-44
2023/03/02 04:24:17;;;;;;;37.58;24.52;;;;;;;;;;5100979;28;20408;-49
2023/03/02 04:26:52;;;;;;;33.50;23.83;;;;;;;;;;5096259;28;20024;-44
2023/03/02 04:29:18;;;;;;;35.97;24.40;;;;;;;;;;5102065;28;20036;-47
2023/03/02 04:31:43;;;;;;;36.55;24.75;;;;;;;;;;5097070;28;20524;-49
2023/03/02 04:34:09;;;;;;;33.33;23.42;;;;;;;;;;5098513;27;20046;-47
2023/03/02 04:36:37;;;;;;;35.50;24.42;;;;;;;;;;5100611;28;20055;-47
2023/03/02 04:39:06;;;;;;;34.55;24.25;;;;;;;;;;5101179;28;20048;-46
2023/03/02 04:41:32;;;;;;;39.60;25.67;;;;;;;;;;5101488;28;20031;-50
2023/03/02 04:43:57;;;;;;;38.15;25.65;;;;;;;;;;5103132;28;20031;-49
2023/03/02 04:46:25;;;;;;;35.47;24.00;;;;;;;;;;5101700;28;20037;-44
2023/03/02 04:48:51;;;;;;;34.90;24.13;;;;;;;;;;5096362;28;20052;-47
2023/03/02 04:51:26;;;;;;;37.10;24.88;;;;;;;;;;5105552;28;20420;-51
2023/03/02 04:53:54;;;;;;;35.97;24.48;;;;;;;;;;5099387;28;20374;-48
2023/03/02 04:56:32;;;;;;;37.45;24.98;;;;;;;;;;5100862;28;20035;-50
2023/03/02 04:58:57;;;;;;;39.65;25.60;;;;;;;;;;5103308;28;20087;-47
2023/03/02 05:01:24;;;;;;;34.22;22.70;;;;;;;;;;5105682;28;20023;-46
2023/03/02 05:03:49;;;;;;;36.05;23.83;;;;;;;;;;5102900;28;20673;-44
2023/03/02 05:06:15;;;;;;;35.38;23.58;;;;;;;;;;5103624;28;20168;-49
2023/03/02 05:08:51;;;;;;;34.05;24.15;;;;;;;;;;5100845;28;20424;-47
2023/03/02 05:11:23;;;;;;;38.25;25.25;;;;;;;;;;5100294;28;20025;-48
2023/03/02 05:14:02;;;;;;;35.20;23.15;;;;;;;;;;5101037;28;20063;-50
2023/03/02 05:16:31;;;;;;;38.80;24.70;;;;;;;;;;5098314;28;20039;-47
2023/03/02 05:19:07;;;;;;;44.83;23.95;;;;;;;;;;5098956;28;20043;-47
2023/03/02 05:21:33;;;;;;;39.65;25.90;;;;;;;;;;5099177;28;20069;-47
2023/03/02 05:23:58;;;;;;;38.45;25.75;;;;;;;;;;5098020;28;20032;-47
2023/03/02 05:26:23;;;;;;;37.67;24.70;;;;;;;;;;5099299;28;20494;-47
2023/03/02 05:28:49;;;;;;;35.10;24.45;;;;;;;;;;5100726;28;20054;-51
2023/03/02 05:31:33;;;;;;;38.00;25.58;;;;;;;;;;5099796;28;20099;-47
2023/03/02 05:33:59;;;;;;;39.85;25.42;;;;;;;;;;5097550;28;20043;-51
2023/03/02 05:36:25;;;;;;;35.42;24.75;;;;;;;;;;5095686;28;20023;-47
2023/03/02 05:38:50;;;;;;;42.28;25.85;;;;;;;;;;5099652;27;20066;-48
2023/03/02 05:41:16;;;;;;;36.67;25.15;;;;;;;;;;5099749;28;20042;-48
2023/03/02 05:43:47;;;;;;;36.50;23.67;;;;;;;;;;5102895;28;20110;-44
2023/03/02 05:46:13;;;;;;;37.35;25.20;;;;;;;;;;5103080;28;20779;-47
2023/03/02 05:48:38;;;;;;;39.58;25.33;;;;;;;;;;5100284;28;20043;-50
2023/03/02 05:51:04;;;;;;;40.83;26.35;;;;;;;;;;5102172;28;20020;-52
2023/03/02 05:53:29;;;;;;;37.83;25.40;;;;;;;;;;5098257;28;20050;-47
2023/03/02 05:55:55;;;;;;;37.40;24.40;;;;;;;;;;5101556;28;20391;-48
2023/03/02 05:58:20;;;;;;;40.33;26.73;;;;;;;;;;5100931;28;20031;-54
2023/03/02 06:00:59;;;;;;;41.40;26.25;;;;;;;;;;5103586;28;20026;-52
2023/03/02 06:03:25;;;;;;;38.75;26.60;;;;;;;;;;5103979;28;20015;-45
2023/03/02 06:05:51;;;;;;;41.90;26.85;;;;;;;;;;5098960;28;20480;-50
2023/03/02 06:08:21;;;;;;;40.40;26.10;;;;;;;;;;5097789;28;20019;-45
2023/03/02 06:10:49;;;;;;;35.97;23.42;;;;;;;;;;5103907;28;20126;-48
2023/03/02 06:13:15;;;;;;;36.25;24.50;;;;;;;;;;5097980;28;20050;-50
2023/03/02 06:15:41;;;;;;;41.50;24.65;;;;;;;;;;5100497;28;20039;-45
2023/03/02 06:18:07;;;;;;;35.95;23.55;;;;;;;;;;5100861;28;20057;-44
2023/03/02 06:20:32;;;;;;;33.65;23.58;;;;;;;;;;5100252;28;20028;-44
2023/03/02 06:22:58;;;;;;;38.25;24.92;;;;;;;;;;5099272;28;20054;-47
2023/03/02 06:25:26;;;;;;;46.15;27.15;;;;;;;;;;5102919;28;20043;-45
2023/03/02 06:27:52;;;;;;;44.55;27.90;;;;;;;;;;5099722;28;20033;-45
2023/03/02 06:30:21;;;;;;;41.58;26.65;;;;;;;;;;5103582;28;20043;-45
2023/03/02 06:32:46;;;;;;;42.38;27.92;;;;;;;;;;5100933;27;20376;-44
2023/03/02 06:35:22;;;;;;;45.47;29.05;;;;;;;;;;5096532;28;20036;-49
2023/03/02 06:37:48;;;;;;;39.67;26.35;;;;;;;;;;5100545;28;20034;-44
2023/03/02 06:40:20;;;;;;;34.92;24.70;;;;;;;;;;5102462;28;20043;-44
2023/03/02 06:42:51;;;;;;;37.50;25.08;;;;;;;;;;5097424;28;20043;-44
2023/03/02 06:45:17;;;;;;;38.30;26.40;;;;;;;;;;5098157;28;20101;-48
2023/03/02 06:47:42;;;;;;;36.20;24.58;;;;;;;;;;5096163;27;20035;-48
2023/03/02 06:50:09;;;;;;;36.78;24.10;;;;;;;;;;5091956;28;20074;-44
2023/03/02 06:52:34;;;;;;;37.28;24.60;;;;;;;;;;5096655;28;20050;-46
2023/03/02 06:55:11;;;;;;;40.55;26.38;;;;;;;;;;5099664;27;20033;-45
2023/03/02 06:57:37;;;;;;;40.58;26.23;;;;;;;;;;5099851;28;20024;-47
2023/03/02 07:00:16;;;;;;;47.08;28.55;;;;;;;;;;5101283;28;20380;-47
2023/03/02 07:02:44;;;;;;;48.00;30.58;;;;;;;;;;5102711;28;20157;-44
2023/03/02 07:05:09;;;;;;;48.50;29.90;;;;;;;;;;5099841;28;20042;-48
2023/03/02 07:07:35;;;;;;;46.20;29.83;;;;;;;;;;5102014;28;20020;-47
2023/03/02 07:10:01;;;;;;;37.22;26.25;;;;;;;;;;5094944;27;20036;-44
2023/03/02 07:12:35;;;;;;;46.42;28.52;;;;;;;;;;5093174;27;20046;-49
2023/03/02 07:15:01;;;;;;;42.17;26.27;;;;;;;;;;5098739;28;20036;-46
2023/03/02 07:17:26;;;;;;;43.42;26.88;;;;;;;;;;5098291;28;20031;-47
2023/03/02 07:19:52;;;;;;;38.13;26.25;;;;;;;;;;5094600;28;20412;-44
2023/03/02 07:22:17;;;;;;;39.90;27.17;;;;;;;;;;5096975;28;20053;-44
2023/03/02 07:24:48;;;;;;;39.20;25.48;;;;;;;;;;5097328;28;20113;-45
2023/03/02 07:27:14;;;;;;;43.88;28.10;;;;;;;;;;5102258;28;20039;-47
2023/03/02 07:29:39;;;;;;;38.92;27.00;;;;;;;;;;5098702;27;20035;-45
2023/03/02 07:32:05;;;;;;;41.95;27.63;;;;;;;;;;5096066;28;20418;-45
2023/03/02 07:34:31;;;;;;;46.35;28.30;;;;;;;;;;5097871;28;20568;-44
2023/03/02 07:37:05;;;;;;;41.97;27.23;;;;;;;;;;5095275;28;20028;-48
2023/03/02 07:39:31;;;;;;;40.05;26.58;;;;;;;;;;5100851;27;20050;-44
2023/03/02 07:41:58;;;;;;;41.00;26.48;;;;;;;;;;5099899;28;20391;-51
2023/03/02 07:44:27;;;;;;;40.20;26.35;;;;;;;;;;5097979;28;20523;-44
2023/03/02 07:46:53;;;;;;;40.72;25.98;;;;;;;;;;5097715;28;20047;-49
2023/03/02 07:49:24;;;;;;;50.70;31.67;;;;;;;;;;5098961;28;20067;-47
2023/03/02 07:51:49;;;;;;;53.40;35.33;;;;;;;;;;5096623;28;20028;-44
2023/03/02 07:54:15;;;;;;;63.03;38.70;;;;;;;;;;5101753;28;20043;-46
2023/03/02 07:56:40;;;;;;;54.03;30.95;;;;;;;;;;5100090;28;20106;-44
2023/03/02 07:59:05;;;;;;;49.47;30.00;;;;;;;;;;5102131;28;20031;-44
2023/03/02 08:01:40;;;;;;;48.92;30.38;;;;;;;;;;5098937;28;20046;-44
2023/03/02 08:04:05;;;;;;;53.80;32.50;;;;;;;;;;5097229;28;20403;-44
2023/03/02 08:06:30;;;;;;;65.80;36.33;;;;;;;;;;5099408;28;20028;-44
2023/03/02 08:08:59;;;;;;;46.45;30.02;;;;;;;;;;5101533;27;20043;-46
2023/03/02 08:11:24;;;;;;;39.47;26.75;;;;;;;;;;5098549;28;20042;-45
2023/03/02 08:14:00;;;;;;;43.50;28.67;;;;;;;;;;5100561;28;20409;-45
2023/03/02 08:16:26;;;;;;;43.97;26.42;;;;;;;;;;5102676;28;20098;-47
2023/03/02 08:18:51;;;;;;;39.78;27.25;;;;;;;;;;5095865;28;20095;-45
2023/03/02 08:21:20;;;;;;;52.22;29.73;;;;;;;;;;5097946;28;20020;-44
2023/03/02 08:23:45;;;;;;;48.70;31.67;;;;;;;;;;5100849;28;20047;-44
2023/03/02 08:26:15;;;;;;;57.40;31.75;;;;;;;;;;5098207;28;20031;-44
2023/03/02 08:28:40;;;;;;;58.17;33.97;;;;;;;;;;5098979;28;20613;-46
2023/03/02 08:31:07;;;;;;;49.25;30.23;;;;;;;;;;5099736;28;20103;-47
2023/03/02 08:33:33;;;;;;;47.83;32.15;;;;;;;;;;5096648;28;20050;-47
2023/03/02 08:36:03;;;;;;;51.53;31.98;;;;;;;;;;5098459;28;20028;-44
2023/03/02 08:38:33;;;;;;;47.78;29.20;;;;;;;;;;5100029;28;20040;-44
2023/03/02 08:41:08;;;;;;;49.97;31.95;;;;;;;;;;5100310;28;20031;-44
2023/03/02 08:43:39;;;;;;;61.22;32.85;;;;;;;;;;5098843;28;20084;-48
2023/03/02 08:46:05;;;;;;;59.30;35.10;;;;;;;;;;5103316;28;20173;-44
2023/03/02 08:48:31;;;;;;;56.60;31.65;;;;;;;;;;5099200;28;20531;-47
2023/03/02 08:51:07;;;;;;;48.22;31.33;;;;;;;;;;5099139;28;20031;-44
2023/03/02 08:53:36;;;;;;;50.63;31.58;;;;;;;;;;5095970;28;20044;-44
2023/03/02 08:56:02;;;;;;;47.88;31.65;;;;;;;;;;5099663;28;20047;-45
2023/03/02 08:58:27;;;;;;;50.88;31.35;;;;;;;;;;5102995;28;20060;-47
2023/03/02 09:00:53;;;;;;;43.65;28.38;;;;;;;;;;5101612;28;20027;-44
2023/03/02 09:03:18;;;;;;;49.22;31.83;;;;;;;;;;5100951;28;20023;-44
2023/03/02 09:05:44;;;;;;;57.13;35.08;;;;;;;;;;5096060;28;20031;-44
2023/03/02 09:08:10;;;;;;;49.13;31.58;;;;;;;;;;5099845;28;20115;-45
2023/03/02 09:10:36;;;;;;;75.80;41.25;;;;;;;;;;5101329;28;20022;-47
2023/03/02 09:13:01;;;;;;;51.38;32.05;;;;;;;;;;5098640;28;20217;-44
2023/03/02 09:15:31;;;;;;;41.58;28.60;;;;;;;;;;5099981;28;20127;-44
2023/03/02 09:17:56;;;;;;;40.40;28.40;;;;;;;;;;5099414;28;20031;-44
2023/03/02 09:20:27;;;;;;;39.90;27.10;;;;;;;;;;5098645;28;20052;-46
2023/03/02 09:22:53;;;;;;;39.85;27.83;;;;;;;;;;5096904;28;20074;-44
2023/03/02 09:25:19;;;;;;;45.33;29.23;;;;;;;;;;5101208;28;20439;-45
2023/03/02 09:27:52;;;;;;;45.50;30.33;;;;;;;;;;5101655;28;20084;-45
2023/03/02 09:30:17;;;;;;;46.58;29.55;;;;;;;;;;5105407;27;20051;-44
2023/03/02 09:32:43;;;;;;;43.97;30.23;;;;;;;;;;5106258;28;20028;-45
2023/03/02 09:35:08;;;;;;;45.83;29.70;;;;;;;;;;5103245;28;20085;-47
2023/03/02 09:37:36;;;;;;;43.65;28.42;;;;;;;;;;5099842;28;20035;-44
2023/03/02 09:40:01;;;;;;;37.22;25.55;;;;;;;;;;5106436;28;20036;-46
2023/03/02 09:42:36;;;;;;;36.25;25.88;;;;;;;;;;5106007;28;20028;-44
2023/03/02 09:45:21;;;;;;;34.42;23.67;;;;;;;;;;5102683;28;20096;-44
2023/03/02 09:48:24;;;;;;;34.65;22.65;;;;;;;;;;5100944;28;20043;-44
2023/03/02 09:50:59;;;;;;;;;;;;;;;;;;5102398;28;20485;-46
2023/03/02 09:53:50;;;;;;;27.67;19.50;;;;;;;;;;5105509;28;19949;-45
2023/03/02 09:56:18;;;;;;;34.83;19.35;;;;;;;;;;5099658;28;20027;-45
2023/03/02 09:59:12;;;;;;;26.83;19.40;;;;;;;;;;5100618;28;20054;-45
2023/03/02 10:01:47;;;;;;;28.92;17.27;;;;;;;;;;5100035;28;20077;-44
2023/03/02 10:04:29;;;;;;;31.80;18.15;;;;;;;;;;5101183;28;20123;-48
2023/03/02 10:07:00;;;;;;;24.55;16.95;;;;;;;;;;5097487;28;20718;-44
2023/03/02 10:09:31;;;;;;;32.28;18.02;;;;;;;;;;5100339;28;20044;-46
2023/03/02 10:12:35;;;;;;;25.77;16.65;;;;;;;;;;5101826;28;20064;-48
2023/03/02 10:15:08;;;;;;;20.40;15.15;;;;;;;;;;5104718;28;20147;-42
2023/03/02 10:17:55;;;;;;;28.60;16.30;;;;;;;;;;5105416;28;20024;-48
2023/03/02 10:20:31;;;;;;;21.35;14.65;;;;;;;;;;5104639;27;20093;-42
2023/03/02 10:23:19;;;;;;;22.65;15.27;;;;;;;;;;5099870;28;20035;-46
2023/03/02 10:26:13;;;;;;;25.50;16.10;;;;;;;;;;5097149;28;20054;-46
2023/03/02 10:28:59;;;;;;;33.10;21.33;;;;;;;;;;5099834;27;20047;-47
2023/03/02 10:31:27;;;;;;;35.97;22.35;;;;;;;;;;5101009;28;20042;-43
2023/03/02 10:33:53;;;;;;;36.80;21.30;;;;;;;;;;5104414;28;20150;-43
2023/03/02 10:36:30;;;;;;;25.33;16.52;;;;;;;;;;5096331;28;20505;-45
2023/03/02 10:38:57;;;;;;;47.38;31.70;;;;;;;;;;5101756;28;20054;-46
2023/03/02 10:41:31;;;;;;;43.13;29.88;;;;;;;;;;5101894;28;20059;-45
2023/03/02 10:44:03;;;;;;;49.83;31.20;;;;;;;;;;5101188;28;22110;-44
2023/03/02 10:46:41;;;;;;;48.95;31.48;;;;;;;;;;5102379;28;20039;-44
2023/03/02 10:49:32;;;;;;;48.45;30.63;;;;;;;;;;5101962;28;20050;-44
2023/03/02 10:52:29;;;;;;;47.38;30.15;;;;;;;;;;5099739;28;20028;-43
2023/03/02 10:55:11;;;;;;;49.97;29.50;;;;;;;;;;5101900;28;20541;-44
2023/03/02 10:57:39;;;;;;;43.20;28.33;;;;;;;;;;5106176;27;20073;-46
2023/03/02 11:00:43;;;;;;;38.75;27.00;;;;;;;;;;5099769;28;20040;-48
2023/03/02 11:03:20;;;;;;;37.78;25.63;;;;;;;;;;5063670;28;21655;-44
2023/03/02 11:05:49;;;;;;;42.92;26.48;;;;;;;;;;5078091;28;20075;-44
2023/03/02 11:08:25;;;;;;;40.55;27.25;;;;;;;;;;5077046;28;20033;-47
2023/03/02 11:11:00;;;;;;;33.15;25.27;;;;;;;;;;5079825;28;20078;-45
2023/03/02 11:13:28;;;;;;;41.08;26.25;;;;;;;;;;5077616;28;20056;-45
2023/03/02 11:16:17;;;;;;;43.20;26.45;;;;;;;;;;5080918;28;20455;-44
2023/03/02 11:19:30;;;;;;;38.03;25.55;;;;;;;;;;5083138;28;20045;-49
2023/03/02 11:22:14;;;;;;;38.78;24.38;;;;;;;;;;5059726;28;20507;-46
2023/03/02 11:24:45;;;;;;;35.75;23.60;;;;;;;;;;5081888;28;20068;-44
2023/03/02 11:27:32;;;;;;;36.03;23.40;;;;;;;;;;5079867;28;20032;-47
2023/03/02 11:30:14;;;;;;;38.22;24.10;;;;;;;;;;5078601;28;20080;-46
2023/03/02 11:33:23;;;;;;;32.67;22.77;;;;;;;;;;5077723;28;20040;-44
2023/03/02 11:35:54;;;;;;;31.17;21.98;;;;;;;;;;5079649;28;20044;-45
2023/03/02 11:38:24;;;;;;;34.40;23.40;;;;;;;;;;5083390;27;20052;-45
2023/03/02 11:40:54;;;;;;;33.95;23.60;;;;;;;;;;5100025;28;20468;-45
2023/03/02 11:43:19;;;;;;;29.38;20.90;;;;;;;;;;5098846;28;20511;-45
2023/03/02 11:45:52;;;;;;;35.13;22.17;;;;;;;;;;5100410;28;20024;-44
2023/03/02 11:48:42;;;;;;;30.33;21.42;;;;;;;;;;5098880;28;20047;-46
2023/03/02 11:51:14;;;;;;;30.88;22.55;;;;;;;;;;5095244;28;20049;-47
2023/03/02 11:54:09;;;;;;;31.55;22.77;;;;;;;;;;5101602;28;20448;-46
2023/03/02 11:56:37;;;;;;;29.45;21.08;;;;;;;;;;5103688;28;20023;-46
2023/03/02 11:59:14;;;;;;;27.92;21.27;;;;;;;;;;5103286;28;20050;-43
2023/03/02 12:01:42;;;;;;;28.92;22.17;;;;;;;;;;5102758;28;20479;-45
2023/03/02 12:04:32;;;;;;;28.88;22.52;;;;;;;;;;5098771;28;20592;-46
2023/03/02 12:07:05;;;;;;;30.52;21.58;;;;;;;;;;5097582;28;20580;-45
2023/03/02 12:09:36;;;;;;;31.15;22.17;;;;;;;;;;5097689;28;20122;-46
2023/03/02 12:12:25;;;;;;;30.65;21.33;;;;;;;;;;5100326;28;20032;-43
2023/03/02 12:14:51;;;;;;;31.30;21.52;;;;;;;;;;5099687;28;20070;-47
2023/03/02 12:17:26;;;;;;;30.33;20.63;;;;;;;;;;5103984;28;20027;-51
2023/03/02 12:20:07;;;;;;;29.25;20.50;;;;;;;;;;5098508;28;20040;-47
2023/03/02 12:22:34;;;;;;;12.43;10.37;;;;;;;;;;5099048;28;20059;-50
2023/03/02 12:25:24;;;;;;;18.40;13.25;;;;;;;;;;5094540;28;20452;-44
2023/03/02 12:27:52;;;;;;;21.40;15.15;;;;;;;;;;5101076;28;20044;-49
2023/03/02 12:30:22;;;;;;;9.55;7.63;;;;;;;;;;5097257;28;20071;-45
2023/03/02 12:33:14;;;;;;;11.27;7.63;;;;;;;;;;5100770;28;20032;-44
2023/03/02 12:36:00;;;;;;;12.07;7.63;;;;;;;;;;5090001;28;20554;-47
2023/03/02 12:38:36;;;;;;;12.10;7.78;;;;;;;;;;5099458;28;20048;-49
2023/03/02 12:41:01;;;;;;;9.63;8.57;;;;;;;;;;5099768;28;20081;-44
2023/03/02 12:43:35;;;;;;;14.40;10.02;;;;;;;;;;5100374;28;20052;-44
2023/03/02 12:46:22;;;;;;;12.43;9.13;;;;;;;;;;5098601;28;20027;-44
2023/03/02 12:49:15;;;;;;;11.35;9.82;;;;;;;;;;5101214;28;20043;-45
2023/03/02 12:51:59;;;;;;;16.70;12.20;;;;;;;;;;5095461;28;20063;-46
2023/03/02 12:54:30;;;;;;;11.85;9.68;;;;;;;;;;5102145;28;20406;-47
2023/03/02 12:57:12;;;;;;;11.90;9.45;;;;;;;;;;5095625;28;20020;-44
2023/03/02 12:59:37;;;;;;;12.80;8.77;;;;;;;;;;5100025;28;20069;-46
2023/03/02 13:02:24;;;;;;;11.18;8.88;;;;;;;;;;5100753;28;20031;-47
2023/03/02 13:04:54;;;;;;;12.27;9.27;;;;;;;;;;5102065;28;20074;-45
2023/03/02 13:07:33;;;;;;;9.57;8.25;;;;;;;;;;5107364;28;20066;-45
2023/03/02 13:09:59;;;;;;;10.88;8.25;;;;;;;;;;5106374;28;20081;-45
2023/03/02 13:12:26;;;;;;;12.45;8.70;;;;;;;;;;5102222;28;20047;-44
2023/03/02 13:14:55;;;;;;;11.90;8.85;;;;;;;;;;5101335;27;20036;-44
2023/03/02 13:17:30;;;;;;;12.80;9.15;;;;;;;;;;5101857;28;20769;-49
2023/03/02 13:19:58;;;;;;;14.10;8.75;;;;;;;;;;5105500;27;20040;-47
2023/03/02 13:22:24;;;;;;;14.07;8.77;;;;;;;;;;5104297;28;20130;-44
2023/03/02 13:25:00;;;;;;;11.10;9.35;;;;;;;;;;5104346;28;20126;-46
2023/03/02 13:27:26;;;;;;;10.20;8.57;;;;;;;;;;5101247;28;20031;-44
2023/03/02 13:30:21;;;;;;;11.40;8.57;;;;;;;;;;5095478;27;21236;-48
2023/03/02 13:32:46;;;;;;;10.48;8.20;;;;;;;;;;5105295;28;20099;-46
2023/03/02 13:35:19;;;;;;;11.98;7.65;;;;;;;;;;5103101;28;20150;-44
2023/03/02 13:37:45;;;;;;;10.05;8.23;;;;;;;;;;5102405;28;20434;-46
2023/03/02 13:40:31;;;;;;;9.38;7.65;;;;;;;;;;5102233;28;20036;-45
2023/03/02 13:42:57;;;;;;;9.40;7.97;;;;;;;;;;5104879;28;20586;-46
2023/03/02 13:45:29;;;;;;;8.95;7.00;;;;;;;;;;5102284;28;20039;-47
2023/03/02 13:48:10;;;;;;;12.13;8.00;;;;;;;;;;5102632;28;20118;-46
2023/03/02 13:50:37;;;;;;;10.50;7.60;;;;;;;;;;5099875;28;20377;-46
2023/03/02 13:53:05;;;;;;;10.57;8.02;;;;;;;;;;5101644;28;20028;-44
2023/03/02 13:55:38;;;;;;;10.15;8.43;;;;;;;;;;5104823;28;20119;-46
2023/03/02 13:58:13;;;;;;;13.02;9.55;;;;;;;;;;5101903;28;20119;-45
2023/03/02 14:00:48;;;;;;;10.75;9.25;;;;;;;;;;5101087;28;20769;-50
2023/03/02 14:03:31;;;;;;;10.50;7.63;;;;;;;;;;5103025;27;20088;-46
2023/03/02 14:06:06;;;;;;;14.27;7.35;;;;;;;;;;5103360;27;20101;-49
2023/03/02 14:08:32;;;;;;;10.73;8.20;;;;;;;;;;5102879;27;20046;-47
2023/03/02 14:10:59;;;;;;;10.95;8.85;;;;;;;;;;5099404;28;20028;-44
2023/03/02 14:13:34;;;;;;;11.10;9.40;;;;;;;;;;5100491;28;20140;-47
2023/03/02 14:16:09;;;;;;;12.18;8.35;;;;;;;;;;5104396;28;20070;-48
2023/03/02 14:18:40;;;;;;;10.50;7.97;;;;;;;;;;5099904;28;20786;-47
2023/03/02 14:21:14;;;;;;;11.77;7.97;;;;;;;;;;5103480;28;20032;-52
2023/03/02 14:23:40;;;;;;;11.73;8.95;;;;;;;;;;5101609;27;20382;-44
2023/03/02 14:26:34;;;;;;;9.18;8.18;;;;;;;;;;5101011;28;20027;-44
2023/03/02 14:29:02;;;;;;;12.63;10.40;;;;;;;;;;5100738;28;20046;-44
2023/03/02 14:31:28;;;;;;;12.18;9.77;;;;;;;;;;5104310;28;20024;-51
2023/03/02 14:33:53;;;;;;;16.35;10.40;;;;;;;;;;5103655;28;20042;-46
2023/03/02 14:36:30;;;;;;;16.52;11.05;;;;;;;;;;5101760;27;20646;-44
2023/03/02 14:38:58;;;;;;;18.38;10.38;;;;;;;;;;5101741;28;20483;-45
2023/03/02 14:41:25;;;;;;;14.05;10.07;;;;;;;;;;5103194;28;20028;-46
2023/03/02 14:43:50;;;;;;;12.27;10.02;;;;;;;;;;5097751;28;20046;-45